Terminal Aerodrome Forecast
Issued by NWS

Home | Current Version | Previous Version | Text Only | Print | Product List | Glossary On
Versions: 1 2 3 4 5 6 7 8 9 10 11 12 13 14 15 16 17 18 19 20 21 22 23 24 25 26 27 28
000
FTAK31 PAFA 171727
TAFAOT
TAF
PAOT 171727Z 1718/1818 29022KT P6SM SCT050 OVC110
     FM180100 28014KT 5SM -SN BR BKN022 OVC035
     FM180500 26019G25KT 1 1/2SM -SN BR OVC015
     FM181600 30017G23KT 3SM -SN BR SCT015 OVC022=

USA.gov is the U.S. government's official web portal to all federal, state and local government web resources and services.